Terminal Aerodrome Forecast
Issued by NWS Tulsa, OK

Home | Current Version | Previous Version | Text Only | Print | Product List | Glossary On
Versions: 1 2 3 4 5 6 7 8 9 10 11 12 13 14 15 16 17 18
000
FTUS44 KTSA 111700
TAFFSM
TAF
KFSM 111730Z 1118/1218 07005KT P6SM SCT050
     FM112000 20008KT P6SM SCT050
     FM120100 09003KT P6SM SKC
     FM121700 20007KT P6SM SKC=

USA.gov is the U.S. government's official web portal to all federal, state and local government web resources and services.